Time;durP1;ratioP1;P1;durP2;ratioP2;P2;SDS_P1;SDS_P2;PMS_P1;PMS_P2;Temp;Humidity;BMP_temperature;BMP_pressure;BME280_temperature;BME280_humidity;BME280_pressure;Samples;Min_cycle;Max_cycle;Signal;HPM_P1;HPM_P2
2022/01/13 00:01:32;;;;;;;0.00;0.00;;;1.60;76.60;;;;;;4167822;28;20041;-47
2022/01/13 00:03:57;;;;;;;0.00;0.00;;;1.70;76.60;;;;;;4172483;28;20057;-48
2022/01/13 00:06:20;;;;;;;0.00;0.00;;;1.50;76.70;;;;;;4177810;28;20080;-51
2022/01/13 00:08:42;;;;;;;0.00;0.00;;;1.50;76.80;;;;;;4177941;28;20091;-48
2022/01/13 00:11:05;;;;;;;0.00;0.00;;;1.50;76.80;;;;;;4177667;28;20075;-55
2022/01/13 00:13:43;;;;;;;0.00;0.00;;;1.50;77.10;;;;;;4178710;28;20159;-47
2022/01/13 00:18:52;;;;;;;0.00;0.00;;;1.40;77.30;;;;;;4186692;28;20040;-49
2022/01/13 00:21:32;;;;;;;0.00;0.00;;;1.40;77.20;;;;;;4176168;28;20573;-51
2022/01/13 00:24:00;;;;;;;0.00;0.00;;;1.40;77.10;;;;;;4156417;28;20053;-48
2022/01/13 00:26:25;;;;;;;0.00;0.00;;;1.40;77.30;;;;;;4132612;28;20046;-48
2022/01/13 00:28:51;;;;;;;0.00;0.00;;;1.30;77.40;;;;;;4153445;28;20049;-50
2022/01/13 00:31:29;;;;;;;0.00;0.00;;;1.30;77.60;;;;;;4179556;28;20099;-50
2022/01/13 00:33:59;;;;;;;0.00;0.00;;;1.30;77.70;;;;;;4175308;28;20069;-54
2022/01/13 00:36:32;;;;;;;0.00;0.00;;;1.30;77.80;;;;;;4159866;28;20059;-48
2022/01/13 00:38:56;;;;;;;0.00;0.00;;;1.20;77.90;;;;;;4154580;28;20419;-51
2022/01/13 00:41:20;;;;;;;0.00;0.00;;;1.10;78.10;;;;;;4174023;28;20048;-48
2022/01/13 00:43:47;;;;;;;0.00;0.00;;;1.00;78.30;;;;;;4177427;28;20294;-47
2022/01/13 00:46:26;;;;;;;0.00;0.00;;;1.00;78.40;;;;;;4161406;28;20057;-52
2022/01/13 00:48:52;;;;;;;0.00;0.00;;;1.00;78.50;;;;;;4155201;28;20069;-49
2022/01/13 00:51:22;;;;;;;0.00;0.00;;;1.00;78.40;;;;;;4181159;28;20441;-57
2022/01/13 00:53:45;;;;;;;0.00;0.00;;;1.00;78.50;;;;;;4173794;28;20233;-60
2022/01/13 00:56:10;;;;;;;0.00;0.00;;;1.00;78.50;;;;;;4178373;28;20060;-54
2022/01/13 00:58:37;;;;;;;0.00;0.00;;;1.00;78.50;;;;;;4177446;28;20048;-59
2022/01/13 01:01:11;;;;;;;0.00;0.00;;;1.10;78.60;;;;;;4169230;28;20068;-58
2022/01/13 01:03:36;;;;;;;0.00;0.00;;;1.10;78.50;;;;;;4175542;28;20049;-60
2022/01/13 01:06:00;;;;;;;0.00;0.00;;;1.10;78.50;;;;;;4147020;28;20045;-55
2022/01/13 01:08:23;;;;;;;0.00;0.00;;;1.10;78.40;;;;;;4161180;28;20082;-59
2022/01/13 01:10:49;;;;;;;0.00;0.00;;;1.10;78.40;;;;;;4161722;28;20405;-47
2022/01/13 01:13:14;;;;;;;0.00;0.00;;;1.10;78.50;;;;;;4161637;28;20037;-60
2022/01/13 01:15:36;;;;;;;0.00;0.00;;;1.10;78.50;;;;;;4175439;28;20128;-60
2022/01/13 01:18:06;;;;;;;0.00;0.00;;;1.10;78.60;;;;;;4161414;28;20067;-57
2022/01/13 01:20:35;;;;;;;0.00;0.00;;;1.10;78.50;;;;;;4144635;28;20148;-57
2022/01/13 01:23:12;;;;;;;0.00;0.00;;;1.10;78.40;;;;;;4165613;28;20061;-58
2022/01/13 01:25:42;;;;;;;0.00;0.00;;;1.10;78.50;;;;;;4175429;28;20506;-59
2022/01/13 01:28:13;;;;;;;0.00;0.00;;;1.10;78.60;;;;;;4161699;28;20049;-57
2022/01/13 01:30:41;;;;;;;0.00;0.00;;;1.00;78.70;;;;;;4160711;28;20497;-56
2022/01/13 01:33:07;;;;;;;0.00;0.00;;;1.00;78.70;;;;;;4161344;28;20100;-57
2022/01/13 01:35:29;;;;;;;0.00;0.00;;;1.10;78.70;;;;;;4175076;28;20057;-58
2022/01/13 01:37:52;;;;;;;0.00;0.00;;;1.20;78.60;;;;;;4175420;28;20040;-56
2022/01/13 01:40:14;;;;;;;0.00;0.00;;;1.10;78.50;;;;;;4174807;28;20396;-55
2022/01/13 01:42:37;;;;;;;0.00;0.00;;;1.10;78.50;;;;;;4175293;28;20114;-60
2022/01/13 01:45:01;;;;;;;0.00;0.00;;;1.20;79.20;;;;;;4175156;28;20087;-60
2022/01/13 01:47:27;;;;;;;0.00;0.00;;;1.20;78.50;;;;;;4175257;28;20048;-61
2022/01/13 01:49:53;;;;;;;0.00;0.00;;;1.20;78.50;;;;;;4161284;28;20511;-59
2022/01/13 01:52:17;;;;;;;0.00;0.00;;;1.20;78.40;;;;;;4175010;28;20474;-60
2022/01/13 01:54:40;;;;;;;0.00;0.00;;;1.10;78.40;;;;;;4174929;28;20063;-60
2022/01/13 01:57:03;;;;;;;0.00;0.00;;;1.10;78.60;;;;;;4175073;28;20041;-59
2022/01/13 01:59:27;;;;;;;0.00;0.00;;;1.10;78.80;;;;;;4161259;28;20404;-59
2022/01/13 02:01:51;;;;;;;0.00;0.00;;;1.00;79.00;;;;;;4147263;28;20663;-60
2022/01/13 02:04:14;;;;;;;0.00;0.00;;;1.00;79.30;;;;;;4174736;28;20443;-57
2022/01/13 02:06:37;;;;;;;0.00;0.00;;;1.00;79.40;;;;;;4157675;28;20045;-60
2022/01/13 02:08:59;;;;;;;0.00;0.00;;;1.00;79.50;;;;;;4171521;28;20580;-58
2022/01/13 02:11:26;;;;;;;0.00;0.00;;;1.00;79.50;;;;;;4174746;28;20136;-59
2022/01/13 02:13:52;;;;;;;0.00;0.00;;;1.00;79.60;;;;;;4147918;28;20053;-60
2022/01/13 02:16:57;;;;;;;0.00;0.00;;;1.00;79.70;;;;;;4144867;28;20100;-61
2022/01/13 02:19:00;;;;;;;0.00;0.00;;;1.00;79.70;;;;;;4148129;28;20512;-60
2022/01/13 02:21:25;;;;;;;0.00;0.00;;;1.00;79.50;;;;;;4177914;28;20045;-60
2022/01/13 02:23:47;;;;;;;0.00;0.00;;;1.00;79.60;;;;;;4164216;28;20132;-60
2022/01/13 02:26:10;;;;;;;0.00;0.00;;;1.00;79.60;;;;;;4164113;28;20050;-59
2022/01/13 02:28:34;;;;;;;0.00;0.00;;;0.90;79.60;;;;;;4150326;28;20045;-60
2022/01/13 02:30:58;;;;;;;0.00;0.00;;;0.90;79.80;;;;;;4163827;28;20092;-60
2022/01/13 02:33:21;;;;;;;0.00;0.00;;;0.90;79.80;;;;;;4164120;28;20065;-60
2022/01/13 02:35:43;;;;;;;0.00;0.00;;;0.90;80.00;;;;;;4163883;28;20112;-58
2022/01/13 02:38:10;;;;;;;0.00;0.00;;;0.80;80.00;;;;;;4163990;28;20410;-60
2022/01/13 02:40:32;;;;;;;0.00;0.00;;;0.80;80.20;;;;;;4163150;28;20047;-60
2022/01/13 02:42:55;;;;;;;0.00;0.00;;;0.90;80.20;;;;;;4163947;28;20466;-60
2022/01/13 02:45:20;;;;;;;0.00;0.00;;;1.00;80.10;;;;;;4163681;28;20084;-60
2022/01/13 02:50:07;;;;;;;0.00;0.00;;;1.00;79.90;;;;;;4177607;28;20108;-59
2022/01/13 02:52:30;;;;;;;0.00;0.00;;;1.00;79.90;;;;;;4163591;28;20050;-60
2022/01/13 02:54:52;;;;;;;0.00;0.00;;;1.00;79.90;;;;;;4177417;28;20052;-60
2022/01/13 02:57:19;;;;;;;0.00;0.00;;;0.90;79.90;;;;;;4163635;28;20053;-60
2022/01/13 02:59:41;;;;;;;0.00;0.00;;;0.90;80.10;;;;;;4163966;28;20091;-61
2022/01/13 03:02:04;;;;;;;0.00;0.00;;;0.90;80.20;;;;;;4172827;28;20120;-60
2022/01/13 03:04:27;;;;;;;0.00;0.00;;;0.80;80.40;;;;;;4193557;28;20135;-59
2022/01/13 03:06:49;;;;;;;0.00;0.00;;;0.60;81.40;;;;;;4180135;28;20093;-60
2022/01/13 03:09:13;;;;;;;0.00;0.00;;;0.60;81.70;;;;;;4180113;28;20045;-60
2022/01/13 03:11:37;;;;;;;0.00;0.00;;;0.70;81.60;;;;;;4193538;28;20060;-59
2022/01/13 03:14:01;;;;;;;0.00;0.00;;;0.70;81.70;;;;;;4193996;28;20540;-60
2022/01/13 03:16:23;;;;;;;0.00;0.00;;;0.70;81.50;;;;;;4167545;28;20072;-60
2022/01/13 03:18:46;;;;;;;0.00;0.00;;;0.60;81.50;;;;;;4193854;28;20052;-60
2022/01/13 03:21:09;;;;;;;0.00;0.00;;;0.60;81.80;;;;;;4179544;28;20048;-60
2022/01/13 03:23:33;;;;;;;0.00;0.00;;;0.70;81.80;;;;;;4193784;28;20135;-60
2022/01/13 03:25:56;;;;;;;0.00;0.00;;;0.80;81.50;;;;;;4178726;28;20067;-60
2022/01/13 03:28:31;;;;;;;0.00;0.00;;;0.90;81.30;;;;;;4173454;28;20052;-59
2022/01/13 03:30:54;;;;;;;0.00;0.00;;;0.90;80.90;;;;;;4167891;28;20044;-59
2022/01/13 03:33:23;;;;;;;0.00;0.00;;;1.00;80.60;;;;;;4179454;28;20061;-59
2022/01/13 03:35:45;;;;;;;0.00;0.00;;;0.90;80.40;;;;;;4166243;28;20128;-60
2022/01/13 03:38:10;;;;;;;0.00;0.00;;;0.90;80.20;;;;;;4179537;28;20060;-60
2022/01/13 03:40:33;;;;;;;0.00;0.00;;;0.90;80.40;;;;;;4178686;28;20052;-61
2022/01/13 03:42:57;;;;;;;0.00;0.00;;;0.90;80.30;;;;;;4179501;28;20132;-60
2022/01/13 03:45:21;;;;;;;0.00;0.00;;;0.90;80.30;;;;;;4179532;28;20112;-60
2022/01/13 03:47:43;;;;;;;0.00;0.00;;;0.90;80.20;;;;;;4193259;28;20067;-60
2022/01/13 03:50:05;;;;;;;0.00;0.00;;;0.90;80.40;;;;;;4179412;28;20425;-60
2022/01/13 03:52:51;;;;;;;0.00;0.00;;;0.90;80.30;;;;;;4192666;28;20083;-60
2022/01/13 03:55:32;;;;;;;0.00;0.00;;;0.90;80.40;;;;;;4157467;28;20425;-58
2022/01/13 03:58:13;;;;;;;0.00;0.00;;;0.90;80.60;;;;;;4179218;28;20056;-60
2022/01/13 04:01:28;;;;;;;0.00;0.00;;;0.90;80.60;;;;;;4178609;28;20048;-58
2022/01/13 04:03:51;;;;;;;0.00;0.00;;;0.90;80.50;;;;;;4162627;28;20053;-59
2022/01/13 04:06:14;;;;;;;0.00;0.00;;;0.90;80.60;;;;;;4175893;28;20557;-60
2022/01/13 04:08:36;;;;;;;0.00;0.00;;;0.90;80.50;;;;;;4162726;28;20478;-59
2022/01/13 04:11:05;;;;;;;0.00;0.00;;;1.00;80.40;;;;;;4162129;28;20045;-61
2022/01/13 04:13:46;;;;;;;0.00;0.00;;;1.00;80.30;;;;;;4176396;28;20129;-62
2022/01/13 04:16:08;;;;;;;0.00;0.00;;;0.90;80.30;;;;;;4162338;28;20103;-60
2022/01/13 04:18:30;;;;;;;0.00;0.00;;;0.90;80.30;;;;;;4162048;28;20491;-59
2022/01/13 04:20:53;;;;;;;0.00;0.00;;;0.80;80.30;;;;;;4162292;28;20545;-59
2022/01/13 04:23:16;;;;;;;0.00;0.00;;;0.80;80.30;;;;;;4162547;28;20411;-57
2022/01/13 04:25:41;;;;;;;0.00;0.00;;;0.70;80.50;;;;;;4162377;28;20049;-60
2022/01/13 04:28:04;;;;;;;0.00;0.00;;;0.70;80.60;;;;;;4162306;28;20100;-60
2022/01/13 04:30:45;;;;;;;0.00;0.00;;;0.70;80.60;;;;;;4161759;28;20560;-60
2022/01/13 04:33:07;;;;;;;0.00;0.00;;;0.80;80.70;;;;;;4162197;28;20547;-59
2022/01/13 04:35:30;;;;;;;0.00;0.00;;;0.80;80.80;;;;;;4148593;28;20540;-59
2022/01/13 04:37:52;;;;;;;0.00;0.00;;;0.80;80.60;;;;;;4162174;28;20059;-60
2022/01/13 04:40:15;;;;;;;0.00;0.00;;;0.80;80.60;;;;;;4175679;28;20120;-60
2022/01/13 04:42:42;;;;;;;0.00;0.00;;;0.80;80.80;;;;;;4161324;28;20052;-58
2022/01/13 04:45:05;;;;;;;0.00;0.00;;;0.80;81.00;;;;;;4175957;28;20045;-61
2022/01/13 04:47:27;;;;;;;0.00;0.00;;;0.80;80.90;;;;;;4175728;28;20139;-59
2022/01/13 04:49:50;;;;;;;0.00;0.00;;;0.90;80.80;;;;;;4175802;28;20081;-61
2022/01/13 04:52:12;;;;;;;0.00;0.00;;;0.90;80.70;;;;;;4158953;28;20050;-60
2022/01/13 04:54:35;;;;;;;0.00;0.00;;;1.00;80.60;;;;;;4175649;28;20114;-60
2022/01/13 04:57:15;;;;;;;0.00;0.00;;;1.00;80.60;;;;;;4175532;28;20053;-61
2022/01/13 04:59:37;;;;;;;0.00;0.00;;;0.90;80.70;;;;;;4148416;28;20081;-60
2022/01/13 05:02:00;;;;;;;0.00;0.00;;;0.70;80.80;;;;;;4172456;28;20055;-60
2022/01/13 05:04:23;;;;;;;0.00;0.00;;;0.80;81.00;;;;;;4178158;28;20422;-59
2022/01/13 05:06:45;;;;;;;0.00;0.00;;;0.80;81.00;;;;;;4192581;28;20070;-60
2022/01/13 05:09:07;;;;;;;0.00;0.00;;;0.90;80.90;;;;;;4178486;28;20049;-60
2022/01/13 05:11:30;;;;;;;0.00;0.00;;;1.00;80.80;;;;;;4167475;28;20058;-60
2022/01/13 05:13:52;;;;;;;0.00;0.00;;;1.10;80.80;;;;;;4175992;28;20069;-60
2022/01/13 05:16:31;;;;;;;0.00;0.00;;;1.10;80.70;;;;;;4192074;28;20078;-60
2022/01/13 05:21:44;;;;;;;0.00;0.00;;;0.90;81.90;;;;;;4178205;28;20573;-59
2022/01/13 05:24:06;;;;;;;0.00;0.00;;;0.90;81.70;;;;;;4178472;28;20041;-60
2022/01/13 05:26:28;;;;;;;0.00;0.00;;;0.60;82.10;;;;;;4178042;28;20053;-60
2022/01/13 05:28:51;;;;;;;0.00;0.00;;;0.20;83.40;;;;;;4178491;28;20518;-59
2022/01/13 05:31:14;;;;;;;0.00;0.00;;;0.20;83.90;;;;;;4174750;28;20049;-61
2022/01/13 05:33:36;;;;;;;0.00;0.00;;;0.30;83.80;;;;;;4175366;28;20485;-61
2022/01/13 05:36:00;;;;;;;0.00;0.00;;;0.40;83.70;;;;;;4175627;28;20115;-61
2022/01/13 05:38:23;;;;;;;0.00;0.00;;;0.50;83.50;;;;;;4161380;28;20450;-59
2022/01/13 05:40:45;;;;;;;0.00;0.00;;;0.50;83.00;;;;;;4175271;28;20132;-57
2022/01/13 05:43:08;;;;;;;0.00;0.00;;;0.40;83.20;;;;;;4161526;28;20037;-60
2022/01/13 05:45:33;;;;;;;0.00;0.00;;;0.50;83.50;;;;;;4175591;28;20069;-61
2022/01/13 05:47:58;;;;;;;0.00;0.00;;;0.60;83.00;;;;;;4175474;28;20455;-59
2022/01/13 05:50:20;;;;;;;0.00;0.00;;;0.50;82.40;;;;;;4161344;28;20155;-53
2022/01/13 05:52:43;;;;;;;0.00;0.00;;;0.50;83.10;;;;;;4161869;28;20041;-61
2022/01/13 05:55:06;;;;;;;0.00;0.00;;;0.50;82.70;;;;;;4164784;28;20052;-61
2022/01/13 05:57:29;;;;;;;0.00;0.00;;;0.30;82.90;;;;;;4178878;28;20071;-60
2022/01/13 05:59:52;;;;;;;0.00;0.00;;;0.30;83.30;;;;;;4178831;28;20056;-60
2022/01/13 06:02:14;;;;;;;0.00;0.00;;;0.40;83.20;;;;;;4178197;28;20044;-61
2022/01/13 06:04:36;;;;;;;0.00;0.00;;;0.40;82.90;;;;;;4151149;28;20113;-60
2022/01/13 06:06:59;;;;;;;0.00;0.00;;;0.20;83.10;;;;;;4178868;28;20056;-60
2022/01/13 06:09:21;;;;;;;0.00;0.00;;;0.20;83.30;;;;;;4178652;28;20075;-60
2022/01/13 06:11:54;;;;;;;0.00;0.00;;;0.30;83.30;;;;;;4178445;28;20557;-61
2022/01/13 06:14:17;;;;;;;0.00;0.00;;;0.40;83.20;;;;;;4164258;28;20085;-57
2022/01/13 06:16:39;;;;;;;0.00;0.00;;;0.30;83.00;;;;;;4164566;28;20045;-60
2022/01/13 06:19:02;;;;;;;0.00;0.00;;;0.30;83.20;;;;;;4178477;28;20087;-61
2022/01/13 06:21:24;;;;;;;0.00;0.00;;;0.20;83.40;;;;;;4164555;28;20049;-57
2022/01/13 06:23:47;;;;;;;0.00;0.00;;;0.20;83.70;;;;;;4178312;28;20136;-52
2022/01/13 06:26:09;;;;;;;0.00;0.00;;;0.20;83.50;;;;;;4164546;28;20056;-53
2022/01/13 06:28:31;;;;;;;0.00;0.00;;;0.30;83.30;;;;;;4147671;28;20060;-54
2022/01/13 06:30:54;;;;;;;0.00;0.00;;;0.40;83.10;;;;;;4168948;28;20071;-59
2022/01/13 06:33:17;;;;;;;0.00;0.00;;;0.40;83.10;;;;;;4171086;28;20049;-48
2022/01/13 06:35:39;;;;;;;0.00;0.00;;;0.20;83.20;;;;;;4176205;28;20048;-59
2022/01/13 06:38:02;;;;;;;0.00;0.00;;;0.30;83.50;;;;;;4194532;28;20063;-58
2022/01/13 06:40:24;;;;;;;0.00;0.00;;;0.40;83.20;;;;;;4180095;28;20072;-55
2022/01/13 06:42:48;;;;;;;0.00;0.00;;;0.40;82.90;;;;;;4167010;28;20068;-52
2022/01/13 06:45:11;;;;;;;0.00;0.00;;;0.40;83.10;;;;;;4180650;28;20072;-49
2022/01/13 06:47:34;;;;;;;0.00;0.00;;;0.30;82.90;;;;;;4180626;28;20073;-50
2022/01/13 06:49:56;;;;;;;0.00;0.00;;;0.40;82.80;;;;;;4180065;28;20133;-52
2022/01/13 06:52:19;;;;;;;0.00;0.00;;;0.50;82.50;;;;;;4179585;28;20091;-50
2022/01/13 06:54:41;;;;;;;0.00;0.00;;;0.20;82.70;;;;;;4180274;28;20041;-56
2022/01/13 06:57:04;;;;;;;0.00;0.00;;;0.20;83.50;;;;;;4180340;28;20053;-58
2022/01/13 06:59:27;;;;;;;0.00;0.00;;;0.20;83.20;;;;;;4180194;28;20051;-53
2022/01/13 07:01:50;;;;;;;0.00;0.00;;;0.20;83.10;;;;;;4179898;28;20499;-56
2022/01/13 07:04:14;;;;;;;0.00;0.00;;;0.30;83.00;;;;;;4179337;28;20049;-58
2022/01/13 07:06:37;;;;;;;0.00;0.00;;;0.20;83.10;;;;;;4180300;28;20549;-58
2022/01/13 07:09:00;;;;;;;0.00;0.00;;;0.20;83.00;;;;;;4194231;28;20052;-58
2022/01/13 07:11:22;;;;;;;0.00;0.00;;;0.00;83.20;;;;;;4180057;28;20474;-56
2022/01/13 07:13:45;;;;;;;0.00;0.00;;;0.10;83.40;;;;;;4179834;28;20433;-52
2022/01/13 07:16:07;;;;;;;0.00;0.00;;;0.20;83.10;;;;;;4178393;28;20060;-54
2022/01/13 07:18:38;;;;;;;0.00;0.00;;;0.20;82.90;;;;;;4157856;28;20052;-52
2022/01/13 07:21:12;;;;;;;0.00;0.00;;;0.40;82.60;;;;;;4171784;28;20047;-55
2022/01/13 07:23:38;;;;;;;0.00;0.00;;;0.40;82.30;;;;;;4193036;28;20565;-55
2022/01/13 07:26:02;;;;;;;0.00;0.00;;;0.40;82.20;;;;;;4179759;28;20057;-56
2022/01/13 07:28:24;;;;;;;0.00;0.00;;;0.50;82.20;;;;;;4191198;28;20048;-57
2022/01/13 07:30:47;;;;;;;0.00;0.00;;;0.40;82.10;;;;;;4174782;28;20048;-56
2022/01/13 07:33:09;;;;;;;0.00;0.00;;;0.40;82.20;;;;;;4175872;28;20053;-50
2022/01/13 07:35:32;;;;;;;0.00;0.00;;;0.40;82.30;;;;;;4171906;28;20457;-51
2022/01/13 07:37:55;;;;;;;0.00;0.00;;;0.30;82.40;;;;;;4162985;28;20045;-52
2022/01/13 07:40:17;;;;;;;0.00;0.00;;;0.40;82.20;;;;;;4162091;28;20056;-52
2022/01/13 07:42:44;;;;;;;0.00;0.00;;;0.50;82.20;;;;;;4162822;28;20041;-58
2022/01/13 07:45:07;;;;;;;0.00;0.00;;;0.50;82.10;;;;;;4161480;28;20053;-55
2022/01/13 07:47:29;;;;;;;0.00;0.00;;;0.50;81.90;;;;;;4148772;28;20053;-54
2022/01/13 07:49:52;;;;;;;0.00;0.00;;;0.50;82.00;;;;;;4162776;28;20152;-52
2022/01/13 07:52:14;;;;;;;0.00;0.00;;;0.40;82.00;;;;;;4175235;28;20828;-58
2022/01/13 07:54:36;;;;;;;0.00;0.00;;;0.50;82.10;;;;;;4175927;28;20053;-59
2022/01/13 07:56:59;;;;;;;0.00;0.00;;;0.50;81.90;;;;;;4162734;28;20045;-55
2022/01/13 07:59:27;;;;;;;0.00;0.00;;;0.60;82.00;;;;;;4177021;28;20053;-53
2022/01/13 08:01:49;;;;;;;0.00;0.00;;;0.60;81.80;;;;;;4149031;28;20060;-52
2022/01/13 08:04:12;;;;;;;0.00;0.00;;;0.60;81.80;;;;;;4176318;28;20052;-54
2022/01/13 08:06:34;;;;;;;0.00;0.00;;;0.60;81.90;;;;;;4158107;28;20047;-55
2022/01/13 08:08:58;;;;;;;0.00;0.00;;;0.70;81.90;;;;;;4147938;28;20045;-59
2022/01/13 08:11:20;;;;;;;0.00;0.00;;;0.80;81.90;;;;;;4179195;28;20048;-56
2022/01/13 08:13:43;;;;;;;0.00;0.00;;;0.90;81.50;;;;;;4179314;28;20053;-54
2022/01/13 08:16:10;;;;;;;0.00;0.00;;;1.10;81.50;;;;;;4178792;28;20080;-57
2022/01/13 08:21:14;;;;;;;0.00;0.00;;;1.30;80.90;;;;;;4178976;28;20048;-58
2022/01/13 08:23:36;;;;;;;0.00;0.00;;;1.40;80.50;;;;;;4179091;28;20057;-58
2022/01/13 08:25:59;;;;;;;0.00;0.00;;;1.70;80.70;;;;;;4178969;28;20553;-58
2022/01/13 08:28:21;;;;;;;0.00;0.00;;;1.80;79.70;;;;;;4164046;28;20552;-58
2022/01/13 08:30:44;;;;;;;0.00;0.00;;;1.90;79.80;;;;;;4178832;28;20098;-57
2022/01/13 08:33:06;;;;;;;0.00;0.00;;;2.10;79.30;;;;;;4192829;28;20041;-55
2022/01/13 08:35:29;;;;;;;0.00;0.00;;;2.20;79.20;;;;;;4178924;28;20048;-60
2022/01/13 08:37:51;;;;;;;0.00;0.00;;;2.60;78.80;;;;;;4192564;28;20513;-58
2022/01/13 08:40:14;;;;;;;0.00;0.00;;;2.90;77.70;;;;;;4178652;28;20151;-56
2022/01/13 08:42:37;;;;;;;0.00;0.00;;;3.00;77.70;;;;;;4178824;28;20045;-58
2022/01/13 08:45:00;;;;;;;0.00;0.00;;;3.00;77.00;;;;;;4172225;28;20449;-58
2022/01/13 08:47:22;;;;;;;0.00;0.00;;;2.70;77.10;;;;;;4186044;28;20071;-58
2022/01/13 08:49:45;;;;;;;0.00;0.00;;;2.60;77.70;;;;;;4178772;28;20045;-56
2022/01/13 08:52:08;;;;;;;0.00;0.00;;;2.60;77.40;;;;;;4178623;28;20131;-58
2022/01/13 08:54:30;;;;;;;0.00;0.00;;;2.30;77.60;;;;;;4164617;28;20486;-57
2022/01/13 08:56:53;;;;;;;0.00;0.00;;;2.20;77.90;;;;;;4178633;28;20044;-57
2022/01/13 08:59:15;;;;;;;0.00;0.00;;;2.00;77.90;;;;;;4166334;28;20052;-55
2022/01/13 09:01:37;;;;;;;0.00;0.00;;;2.00;78.60;;;;;;4166454;28;20052;-58
2022/01/13 09:04:00;;;;;;;0.00;0.00;;;2.10;78.10;;;;;;4162051;28;20041;-58
2022/01/13 09:06:22;;;;;;;0.00;0.00;;;2.40;78.00;;;;;;4154222;28;20097;-57
2022/01/13 09:08:45;;;;;;;0.00;0.00;;;2.50;77.10;;;;;;4174678;28;20041;-59
2022/01/13 09:11:08;;;;;;;0.00;0.00;;;2.50;77.00;;;;;;4175447;28;20480;-60
2022/01/13 09:13:36;;;;;;;0.00;0.00;;;2.50;76.40;;;;;;4176578;28;20481;-60
2022/01/13 09:15:59;;;;;;;0.00;0.00;;;2.50;76.20;;;;;;4178260;28;20503;-59
2022/01/13 09:18:34;;;;;;;0.00;0.00;;;2.40;75.60;;;;;;4189957;28;20049;-60
2022/01/13 09:21:00;;;;;;;0.00;0.00;;;2.30;76.10;;;;;;4161420;28;20491;-60
2022/01/13 09:23:22;;;;;;;0.00;0.00;;;2.20;75.90;;;;;;4149796;28;20142;-60
2022/01/13 09:25:45;;;;;;;0.00;0.00;;;2.00;75.80;;;;;;4159927;28;20137;-60
2022/01/13 09:28:08;;;;;;;0.00;0.00;;;1.90;76.20;;;;;;4158902;28;20064;-59
2022/01/13 09:30:32;;;;;;;0.00;0.00;;;2.00;76.10;;;;;;4147452;28;20049;-56
2022/01/13 09:32:55;;;;;;;0.00;0.00;;;2.10;75.90;;;;;;4161542;28;20111;-60
2022/01/13 09:35:18;;;;;;;0.00;0.00;;;1.90;76.20;;;;;;4161738;28;20049;-61
2022/01/13 09:37:41;;;;;;;0.00;0.00;;;2.00;76.80;;;;;;4161494;28;20042;-60
2022/01/13 09:40:07;;;;;;;0.00;0.00;;;2.50;76.90;;;;;;4161408;28;20534;-60
2022/01/13 09:42:32;;;;;;;0.00;0.00;;;3.00;75.90;;;;;;4175327;28;20087;-61
2022/01/13 09:44:55;;;;;;;0.00;0.00;;;3.50;75.10;;;;;;4175613;28;20179;-61
2022/01/13 09:47:17;;;;;;;0.00;0.00;;;4.10;73.70;;;;;;4175446;28;20494;-56
2022/01/13 09:49:42;;;;;;;0.00;0.00;;;4.80;72.70;;;;;;4175425;28;20052;-59
2022/01/13 09:52:05;;;;;;;0.00;0.00;;;5.10;69.70;;;;;;4147872;28;20056;-61
2022/01/13 09:54:27;;;;;;;0.00;0.00;;;5.40;68.80;;;;;;4175119;28;20057;-61
2022/01/13 09:56:50;;;;;;;0.00;0.00;;;5.50;67.70;;;;;;4175467;28;20691;-61
2022/01/13 09:59:12;;;;;;;0.00;0.00;;;6.00;68.20;;;;;;4175458;28;20140;-61
2022/01/13 10:01:35;;;;;;;0.00;0.00;;;5.70;66.50;;;;;;4175298;28;20508;-61
2022/01/13 10:03:57;;;;;;;0.00;0.00;;;5.40;66.90;;;;;;4175332;28;20128;-61
2022/01/13 10:06:21;;;;;;;0.00;0.00;;;5.70;67.80;;;;;;4180754;28;20076;-60
2022/01/13 10:08:51;;;;;;;0.00;0.00;;;6.20;66.60;;;;;;4191958;28;20045;-60
2022/01/13 10:11:37;;;;;;;0.00;0.00;;;6.50;64.70;;;;;;4164117;28;20056;-61
2022/01/13 10:16:53;;;;;;;0.00;0.00;;;7.70;63.20;;;;;;4191454;28;20068;-61
2022/01/13 10:19:42;;;;;;;0.00;0.00;;;8.10;61.80;;;;;;4177671;28;20132;-61
2022/01/13 10:22:12;;;;;;;0.00;0.00;;;8.40;61.00;;;;;;4177479;28;20041;-60
2022/01/13 10:24:36;;;;;;;0.00;0.00;;;8.50;60.10;;;;;;4177396;28;20465;-60
2022/01/13 10:27:12;;;;;;;0.00;0.00;;;8.60;59.40;;;;;;4177914;28;20037;-60
2022/01/13 10:29:58;;;;;;;0.00;0.00;;;8.80;58.50;;;;;;4177833;28;20040;-61
2022/01/13 10:32:21;;;;;;;0.00;0.00;;;8.40;57.20;;;;;;4176515;28;20098;-58
2022/01/13 10:34:47;;;;;;;0.00;0.00;;;8.00;57.70;;;;;;4178049;28;20075;-59
2022/01/13 10:37:16;;;;;;;0.00;0.00;;;7.70;58.60;;;;;;4177584;28;20045;-60
2022/01/13 10:39:52;;;;;;;0.00;0.00;;;8.40;58.40;;;;;;4177795;28;20077;-59
2022/01/13 10:45:00;;;;;;;0.00;0.00;;;9.70;55.40;;;;;;4164103;28;20048;-62
2022/01/13 10:47:23;;;;;;;0.00;0.00;;;9.70;54.40;;;;;;4164004;28;20116;-62
2022/01/13 10:49:49;;;;;;;0.00;0.00;;;9.50;54.40;;;;;;4164208;28;20466;-60
2022/01/13 10:52:24;;;;;;;0.00;0.00;;;10.00;54.20;;;;;;4163715;28;20129;-59
2022/01/13 10:54:47;;;;;;;0.00;0.00;;;10.00;52.90;;;;;;4163955;28;20087;-61
2022/01/13 10:57:17;;;;;;;0.00;0.00;;;10.30;52.70;;;;;;4163839;28;20050;-58
2022/01/13 10:59:39;;;;;;;0.00;0.00;;;9.80;51.70;;;;;;4163920;28;20136;-58
2022/01/13 11:02:10;;;;;;;0.00;0.00;;;9.50;52.40;;;;;;4163627;28;20115;-59
2022/01/13 11:04:33;;;;;;;0.00;0.00;;;9.50;52.80;;;;;;4150792;28;20049;-63
2022/01/13 11:07:15;;;;;;;0.00;0.00;;;9.90;52.50;;;;;;4168262;28;20075;-62
2022/01/13 11:09:42;;;;;;;0.00;0.00;;;10.30;50.70;;;;;;4163794;28;20084;-63
2022/01/13 11:12:05;;;;;;;0.00;0.00;;;10.00;50.80;;;;;;4163403;28;20053;-64
2022/01/13 11:14:27;;;;;;;0.00;0.00;;;9.90;51.00;;;;;;4160098;28;20157;-62
2022/01/13 11:16:50;;;;;;;0.00;0.00;;;10.00;50.90;;;;;;4180010;28;20094;-61
2022/01/13 11:19:15;;;;;;;0.00;0.00;;;10.20;50.10;;;;;;4179861;28;20139;-61
2022/01/13 11:21:39;;;;;;;0.00;0.00;;;10.30;50.30;;;;;;4179152;28;20051;-60
2022/01/13 11:24:02;;;;;;;0.00;0.00;;;10.30;49.80;;;;;;4179548;28;20079;-60
2022/01/13 11:26:27;;;;;;;0.00;0.00;;;10.50;49.80;;;;;;4164653;28;20135;-60
2022/01/13 11:28:50;;;;;;;0.00;0.00;;;10.70;49.30;;;;;;4193883;28;20127;-59
2022/01/13 11:31:12;;;;;;;0.00;0.00;;;11.20;48.80;;;;;;4193539;28;20083;-60
2022/01/13 11:33:36;;;;;;;0.00;0.00;;;10.90;48.10;;;;;;4193272;28;20056;-60
2022/01/13 11:35:59;;;;;;;0.00;0.00;;;10.10;49.20;;;;;;4165606;28;20480;-62
2022/01/13 11:38:27;;;;;;;0.00;0.00;;;9.40;50.20;;;;;;4179199;28;20083;-60
2022/01/13 11:41:07;;;;;;;0.00;0.00;;;10.00;50.10;;;;;;4192966;28;20784;-61
2022/01/13 11:43:33;;;;;;;0.00;0.00;;;10.50;48.80;;;;;;4165053;28;20061;-62
2022/01/13 11:46:00;;;;;;;0.00;0.00;;;10.00;48.40;;;;;;4178968;28;20044;-61
2022/01/13 11:48:25;;;;;;;0.00;0.00;;;9.40;49.30;;;;;;4178808;28;20083;-61
2022/01/13 11:50:55;;;;;;;0.00;0.00;;;8.50;50.00;;;;;;4165292;28;20128;-62
2022/01/13 11:53:31;;;;;;;0.00;0.00;;;7.90;51.40;;;;;;4193042;28;20079;-60
2022/01/13 11:56:06;;;;;;;0.00;0.00;;;7.20;53.20;;;;;;4179642;28;20087;-60
2022/01/13 11:58:43;;;;;;;0.00;0.00;;;6.70;54.80;;;;;;4179140;28;20163;-61
2022/01/13 12:01:19;;;;;;;0.00;0.00;;;6.30;55.40;;;;;;4179425;28;20041;-61
2022/01/13 12:03:52;;;;;;;0.00;0.00;;;6.20;55.90;;;;;;4193836;28;20067;-59
2022/01/13 12:06:41;;;;;;;0.00;0.00;;;5.10;58.50;;;;;;4165537;28;20072;-60
2022/01/13 12:09:09;;;;;;;0.00;0.00;;;5.00;59.30;;;;;;4179681;28;20510;-60
2022/01/13 12:11:39;;;;;;;0.00;0.00;;;5.00;59.40;;;;;;4179299;28;20049;-60
2022/01/13 12:14:02;;;;;;;0.00;0.00;;;5.10;59.50;;;;;;4179495;28;20077;-61
2022/01/13 12:16:53;;;;;;;0.00;0.00;;;4.90;60.10;;;;;;4192853;28;20075;-60
2022/01/13 12:19:36;;;;;;;0.00;0.00;;;4.80;60.40;;;;;;4179163;28;20049;-59
2022/01/13 12:22:09;;;;;;;0.00;0.00;;;4.20;62.50;;;;;;4178766;28;20073;-61
2022/01/13 12:24:55;;;;;;;0.00;0.00;;;3.70;64.30;;;;;;4178792;28;20041;-61
2022/01/13 12:27:40;;;;;;;0.00;0.00;;;3.70;65.10;;;;;;4192877;28;20053;-60
2022/01/13 12:30:07;;;;;;;0.00;0.00;;;3.60;65.70;;;;;;4179128;28;20059;-60
2022/01/13 12:32:54;;;;;;;0.00;0.00;;;3.70;65.20;;;;;;4152207;28;20539;-59
2022/01/13 12:35:38;;;;;;;0.00;0.00;;;3.70;65.60;;;;;;4179087;28;20525;-60
2022/01/13 12:38:03;;;;;;;0.00;0.00;;;3.90;65.80;;;;;;4192903;28;20055;-60
2022/01/13 12:40:45;;;;;;;0.00;0.00;;;4.00;65.50;;;;;;4164010;28;20054;-60
2022/01/13 12:45:58;;;;;;;0.00;0.00;;;4.00;66.40;;;;;;4177077;28;20041;-60
2022/01/13 12:48:20;;;;;;;0.00;0.00;;;4.20;65.50;;;;;;4177153;28;20059;-59
2022/01/13 12:50:45;;;;;;;0.00;0.00;;;4.10;65.60;;;;;;4162152;28;20048;-60
2022/01/13 12:53:13;;;;;;;0.00;0.00;;;3.90;66.50;;;;;;4170272;28;20052;-61
2022/01/13 12:55:39;;;;;;;0.00;0.00;;;3.70;67.70;;;;;;4178806;28;20154;-60
2022/01/13 12:58:01;;;;;;;0.00;0.00;;;3.70;68.10;;;;;;4178640;28;20128;-60
2022/01/13 13:00:45;;;;;;;0.00;0.00;;;3.50;68.60;;;;;;4177390;28;20040;-60
2022/01/13 13:03:08;;;;;;;0.00;0.00;;;3.90;67.90;;;;;;4161482;28;20056;-61
2022/01/13 13:05:47;;;;;;;0.00;0.00;;;4.20;67.00;;;;;;4162162;28;20415;-60
2022/01/13 13:08:13;;;;;;;0.00;0.00;;;4.50;66.30;;;;;;4162222;28;20080;-61